sensor_id;sensor_type;location;lat;lon;timestamp;pressure;altitude;pressure_sealevel;temperature;humidity
13050;BME280;6591;51.446;5.404;2022-11-20T00:01:24;101007.88;;;5.75;48.08
13050;BME280;6591;51.446;5.404;2022-11-20T00:03:54;101012.38;;;5.70;48.36
13050;BME280;6591;51.446;5.404;2022-11-20T00:06:25;101009.88;;;5.64;48.36
13050;BME280;6591;51.446;5.404;2022-11-20T00:08:58;101011.75;;;5.59;48.52
13050;BME280;6591;51.446;5.404;2022-11-20T00:11:32;101004.84;;;5.53;49.01
13050;BME280;6591;51.446;5.404;2022-11-20T00:14:01;101009.31;;;5.50;48.86
13050;BME280;6591;51.446;5.404;2022-11-20T00:16:32;101011.16;;;5.45;48.52
13050;BME280;6591;51.446;5.404;2022-11-20T00:18:59;101005.13;;;5.41;48.91
13050;BME280;6591;51.446;5.404;2022-11-20T00:21:28;101005.19;;;5.38;49.18
13050;BME280;6591;51.446;5.404;2022-11-20T00:23:57;101003.47;;;5.36;49.04
13050;BME280;6591;51.446;5.404;2022-11-20T00:26:26;100991.25;;;5.33;48.71
13050;BME280;6591;51.446;5.404;2022-11-20T00:28:56;100994.78;;;5.32;49.17
13050;BME280;6591;51.446;5.404;2022-11-20T00:31:24;101000.06;;;5.31;48.89
13050;BME280;6591;51.446;5.404;2022-11-20T00:33:51;101002.72;;;5.29;48.91
13050;BME280;6591;51.446;5.404;2022-11-20T00:36:24;101008.06;;;5.26;48.71
13050;BME280;6591;51.446;5.404;2022-11-20T00:38:55;101006.34;;;5.24;48.71
13050;BME280;6591;51.446;5.404;2022-11-20T00:41:23;101007.34;;;5.20;48.86
13050;BME280;6591;51.446;5.404;2022-11-20T00:43:53;100998.63;;;5.18;48.78
13050;BME280;6591;51.446;5.404;2022-11-20T00:46:23;101005.66;;;5.16;48.74
13050;BME280;6591;51.446;5.404;2022-11-20T00:48:51;101004.81;;;5.13;48.47
13050;BME280;6591;51.446;5.404;2022-11-20T00:51:21;101004.03;;;5.10;48.81
13050;BME280;6591;51.446;5.404;2022-11-20T00:53:49;101001.41;;;5.08;49.12
13050;BME280;6591;51.446;5.404;2022-11-20T00:56:18;101001.47;;;5.07;49.22
13050;BME280;6591;51.446;5.404;2022-11-20T00:58:48;101003.28;;;5.03;49.71
13050;BME280;6591;51.446;5.404;2022-11-20T01:01:24;100991.97;;;5.00;49.32
13050;BME280;6591;51.446;5.404;2022-11-20T01:03:55;100999.94;;;4.97;49.15
13050;BME280;6591;51.446;5.404;2022-11-20T01:06:33;101002.63;;;4.92;49.89
13050;BME280;6591;51.446;5.404;2022-11-20T01:09:05;101002.66;;;4.91;49.87
13050;BME280;6591;51.446;5.404;2022-11-20T01:11:37;101001.81;;;4.89;49.46
13050;BME280;6591;51.446;5.404;2022-11-20T01:14:09;100998.31;;;4.88;49.39
13050;BME280;6591;51.446;5.404;2022-11-20T01:16:40;101003.59;;;4.88;49.75
13050;BME280;6591;51.446;5.404;2022-11-20T01:19:13;101002.72;;;4.88;49.69
13050;BME280;6591;51.446;5.404;2022-11-20T01:21:47;101005.34;;;4.88;49.77
13050;BME280;6591;51.446;5.404;2022-11-20T01:24:16;101003.59;;;4.88;49.98
13050;BME280;6591;51.446;5.404;2022-11-20T01:26:46;101008.84;;;4.88;50.12
13050;BME280;6591;51.446;5.404;2022-11-20T01:29:23;101005.34;;;4.88;50.20
13050;BME280;6591;51.446;5.404;2022-11-20T01:31:51;101000.94;;;4.90;50.12
13050;BME280;6591;51.446;5.404;2022-11-20T01:34:20;100999.09;;;4.93;50.24
13050;BME280;6591;51.446;5.404;2022-11-20T01:36:49;100993.75;;;4.98;50.84
13050;BME280;6591;51.446;5.404;2022-11-20T01:39:22;100995.44;;;5.02;50.51
13050;BME280;6591;51.446;5.404;2022-11-20T01:41:53;100989.19;;;5.07;50.81
13050;BME280;6591;51.446;5.404;2022-11-20T01:44:53;100992.59;;;5.13;50.71
13050;BME280;6591;51.446;5.404;2022-11-20T01:50:11;100995.00;;;5.23;51.13
13050;BME280;6591;51.446;5.404;2022-11-20T01:52:47;101007.94;;;5.32;50.83
13050;BME280;6591;51.446;5.404;2022-11-20T01:55:26;101003.34;;;5.42;50.66
13050;BME280;6591;51.446;5.404;2022-11-20T01:57:55;101001.34;;;5.53;51.12
13050;BME280;6591;51.446;5.404;2022-11-20T02:00:22;100993.25;;;5.62;51.36
13050;BME280;6591;51.446;5.404;2022-11-20T02:03:01;100991.34;;;5.69;50.95
13050;BME280;6591;51.446;5.404;2022-11-20T02:05:46;100988.47;;;5.79;51.41
13050;BME280;6591;51.446;5.404;2022-11-20T02:08:17;100979.47;;;5.89;51.32
13050;BME280;6591;51.446;5.404;2022-11-20T02:10:44;100980.97;;;6.00;50.88
13050;BME280;6591;51.446;5.404;2022-11-20T02:13:11;100977.28;;;6.07;50.28
13050;BME280;6591;51.446;5.404;2022-11-20T02:15:57;100977.09;;;6.14;50.75
13050;BME280;6591;51.446;5.404;2022-11-20T02:18:24;100988.41;;;6.18;50.12
13050;BME280;6591;51.446;5.404;2022-11-20T02:21:02;100984.88;;;6.19;50.31
13050;BME280;6591;51.446;5.404;2022-11-20T02:23:58;100979.53;;;6.22;50.83
13050;BME280;6591;51.446;5.404;2022-11-20T02:26:28;100976.81;;;6.25;51.25
13050;BME280;6591;51.446;5.404;2022-11-20T02:28:55;100980.22;;;6.28;51.09
13050;BME280;6591;51.446;5.404;2022-11-20T02:31:23;100974.00;;;6.32;50.70
13050;BME280;6591;51.446;5.404;2022-11-20T02:33:56;100970.38;;;6.36;50.34
13050;BME280;6591;51.446;5.404;2022-11-20T02:36:26;100967.59;;;6.41;50.70
13050;BME280;6591;51.446;5.404;2022-11-20T02:38:54;100967.47;;;6.46;51.32
13050;BME280;6591;51.446;5.404;2022-11-20T02:41:21;100974.41;;;6.50;50.91
13050;BME280;6591;51.446;5.404;2022-11-20T02:43:48;100969.94;;;6.53;51.22
13050;BME280;6591;51.446;5.404;2022-11-20T02:46:15;100966.28;;;6.57;50.51
13050;BME280;6591;51.446;5.404;2022-11-20T02:48:42;100976.81;;;6.59;50.35
13050;BME280;6591;51.446;5.404;2022-11-20T02:51:10;100975.03;;;6.59;50.88
13050;BME280;6591;51.446;5.404;2022-11-20T02:53:37;100966.19;;;6.60;50.67
13050;BME280;6591;51.446;5.404;2022-11-20T02:56:04;100964.41;;;6.62;50.86
13050;BME280;6591;51.446;5.404;2022-11-20T02:58:31;100965.16;;;6.66;50.79
13050;BME280;6591;51.446;5.404;2022-11-20T03:00:58;100962.50;;;6.67;50.69
13050;BME280;6591;51.446;5.404;2022-11-20T03:03:25;100962.41;;;6.70;50.76
13050;BME280;6591;51.446;5.404;2022-11-20T03:05:52;100952.69;;;6.72;50.56
13050;BME280;6591;51.446;5.404;2022-11-20T03:08:19;100965.78;;;6.75;50.21
13050;BME280;6591;51.446;5.404;2022-11-20T03:10:46;100961.22;;;6.80;50.45
13050;BME280;6591;51.446;5.404;2022-11-20T03:13:13;100968.13;;;6.86;51.03
13050;BME280;6591;51.446;5.404;2022-11-20T03:15:40;100963.63;;;6.90;50.63
13050;BME280;6591;51.446;5.404;2022-11-20T03:18:07;100951.22;;;6.93;50.67
13050;BME280;6591;51.446;5.404;2022-11-20T03:20:34;100959.09;;;6.95;50.81
13050;BME280;6591;51.446;5.404;2022-11-20T03:23:01;100951.06;;;6.98;50.44
13050;BME280;6591;51.446;5.404;2022-11-20T03:25:28;100955.44;;;6.99;50.65
13050;BME280;6591;51.446;5.404;2022-11-20T03:27:56;100942.16;;;7.02;50.48
13050;BME280;6591;51.446;5.404;2022-11-20T03:30:22;100944.69;;;7.06;51.22
13050;BME280;6591;51.446;5.404;2022-11-20T03:32:56;100932.25;;;7.10;50.31
13050;BME280;6591;51.446;5.404;2022-11-20T03:35:23;100940.16;;;7.10;50.43
13050;BME280;6591;51.446;5.404;2022-11-20T03:37:50;100938.44;;;7.09;50.71
13050;BME280;6591;51.446;5.404;2022-11-20T03:40:17;100927.84;;;7.10;50.86
13050;BME280;6591;51.446;5.404;2022-11-20T03:42:43;100919.06;;;7.10;50.50
13050;BME280;6591;51.446;5.404;2022-11-20T03:45:18;100922.56;;;7.10;50.13
13050;BME280;6591;51.446;5.404;2022-11-20T03:47:45;100915.44;;;7.12;50.61
13050;BME280;6591;51.446;5.404;2022-11-20T03:50:13;100931.25;;;7.14;50.85
13050;BME280;6591;51.446;5.404;2022-11-20T03:52:41;100920.59;;;7.17;50.49
13050;BME280;6591;51.446;5.404;2022-11-20T03:55:08;100924.91;;;7.19;50.13
13050;BME280;6591;51.446;5.404;2022-11-20T03:57:35;100920.53;;;7.18;50.25
13050;BME280;6591;51.446;5.404;2022-11-20T04:00:04;100911.84;;;7.15;50.63
13050;BME280;6591;51.446;5.404;2022-11-20T04:02:31;100907.47;;;7.14;50.50
13050;BME280;6591;51.446;5.404;2022-11-20T04:04:58;100913.66;;;7.13;50.11
13050;BME280;6591;51.446;5.404;2022-11-20T04:07:25;100910.22;;;7.11;49.91
13050;BME280;6591;51.446;5.404;2022-11-20T04:09:52;100917.28;;;7.10;50.14
13050;BME280;6591;51.446;5.404;2022-11-20T04:12:18;100911.16;;;7.08;50.14
13050;BME280;6591;51.446;5.404;2022-11-20T04:14:45;100916.47;;;7.07;50.25
13050;BME280;6591;51.446;5.404;2022-11-20T04:17:12;100908.63;;;7.05;49.76
13050;BME280;6591;51.446;5.404;2022-11-20T04:19:39;100908.66;;;7.04;50.52
13050;BME280;6591;51.446;5.404;2022-11-20T04:22:06;100909.50;;;7.06;50.19
13050;BME280;6591;51.446;5.404;2022-11-20T04:24:33;100905.09;;;7.06;50.30
13050;BME280;6591;51.446;5.404;2022-11-20T04:26:59;100912.91;;;7.09;49.88
13050;BME280;6591;51.446;5.404;2022-11-20T04:29:26;100910.13;;;7.14;50.44
13050;BME280;6591;51.446;5.404;2022-11-20T04:31:53;100910.03;;;7.17;51.14
13050;BME280;6591;51.446;5.404;2022-11-20T04:34:20;100914.38;;;7.18;50.64
13050;BME280;6591;51.446;5.404;2022-11-20T04:36:47;100908.13;;;7.22;50.93
13050;BME280;6591;51.446;5.404;2022-11-20T04:39:14;100907.19;;;7.23;50.35
13050;BME280;6591;51.446;5.404;2022-11-20T04:41:42;100907.03;;;7.28;50.80
13050;BME280;6591;51.446;5.404;2022-11-20T04:44:09;100908.72;;;7.32;50.24
13050;BME280;6591;51.446;5.404;2022-11-20T04:46:41;100905.09;;;7.34;49.99
13050;BME280;6591;51.446;5.404;2022-11-20T04:49:10;100905.81;;;7.39;50.38
13050;BME280;6591;51.446;5.404;2022-11-20T04:51:38;100904.00;;;7.41;50.19
13050;BME280;6591;51.446;5.404;2022-11-20T04:54:05;100897.81;;;7.42;50.22
13050;BME280;6591;51.446;5.404;2022-11-20T04:56:32;100902.06;;;7.46;50.06
13050;BME280;6591;51.446;5.404;2022-11-20T04:59:02;100896.69;;;7.49;50.33
13050;BME280;6591;51.446;5.404;2022-11-20T05:01:30;100896.59;;;7.52;50.15
13050;BME280;6591;51.446;5.404;2022-11-20T05:03:57;100889.47;;;7.54;50.45
13050;BME280;6591;51.446;5.404;2022-11-20T05:06:23;100889.44;;;7.56;50.18
13050;BME280;6591;51.446;5.404;2022-11-20T05:08:50;100888.47;;;7.58;49.93
13050;BME280;6591;51.446;5.404;2022-11-20T05:11:20;100886.69;;;7.59;50.97
13050;BME280;6591;51.446;5.404;2022-11-20T05:13:49;100876.94;;;7.61;50.49
13050;BME280;6591;51.446;5.404;2022-11-20T05:16:21;100875.13;;;7.63;50.01
13050;BME280;6591;51.446;5.404;2022-11-20T05:18:50;100881.16;;;7.66;49.98
13050;BME280;6591;51.446;5.404;2022-11-20T05:21:17;100876.75;;;7.67;50.79
13050;BME280;6591;51.446;5.404;2022-11-20T05:23:45;100866.16;;;7.67;49.91
13050;BME280;6591;51.446;5.404;2022-11-20T05:26:20;100871.47;;;7.67;50.32
13050;BME280;6591;51.446;5.404;2022-11-20T05:28:49;100862.66;;;7.66;49.96
13050;BME280;6591;51.446;5.404;2022-11-20T05:31:22;100864.47;;;7.64;50.44
13050;BME280;6591;51.446;5.404;2022-11-20T05:33:56;100865.34;;;7.65;50.42
13050;BME280;6591;51.446;5.404;2022-11-20T05:36:24;100867.94;;;7.66;49.94
13050;BME280;6591;51.446;5.404;2022-11-20T05:38:51;100864.41;;;7.68;50.07
13050;BME280;6591;51.446;5.404;2022-11-20T05:41:24;100873.19;;;7.68;50.32
13050;BME280;6591;51.446;5.404;2022-11-20T05:43:51;100869.56;;;7.71;50.58
13050;BME280;6591;51.446;5.404;2022-11-20T05:46:20;100876.47;;;7.75;49.95
13050;BME280;6591;51.446;5.404;2022-11-20T05:48:55;100876.38;;;7.78;50.45
13050;BME280;6591;51.446;5.404;2022-11-20T05:51:24;100876.28;;;7.81;50.81
13050;BME280;6591;51.446;5.404;2022-11-20T05:53:51;100888.50;;;7.85;50.87
13050;BME280;6591;51.446;5.404;2022-11-20T05:56:20;100886.63;;;7.87;50.57
13050;BME280;6591;51.446;5.404;2022-11-20T05:58:48;100898.03;;;7.89;50.44
13050;BME280;6591;51.446;5.404;2022-11-20T06:01:25;100895.41;;;7.89;50.61
13050;BME280;6591;51.446;5.404;2022-11-20T06:03:53;100901.44;;;7.92;50.89
13050;BME280;6591;51.446;5.404;2022-11-20T06:06:21;100904.91;;;7.94;50.66
13050;BME280;6591;51.446;5.404;2022-11-20T06:08:48;100898.63;;;7.97;50.68
13050;BME280;6591;51.446;5.404;2022-11-20T06:11:16;100902.88;;;8.01;51.05
13050;BME280;6591;51.446;5.404;2022-11-20T06:13:44;100904.53;;;8.05;50.30
13050;BME280;6591;51.446;5.404;2022-11-20T06:16:15;100885.00;;;8.09;51.36
13050;BME280;6591;51.446;5.404;2022-11-20T06:18:42;100887.53;;;8.12;50.52
13050;BME280;6591;51.446;5.404;2022-11-20T06:21:12;100892.72;;;8.15;50.82
13050;BME280;6591;51.446;5.404;2022-11-20T06:23:41;100887.28;;;8.20;50.39
13050;BME280;6591;51.446;5.404;2022-11-20T06:26:22;100881.94;;;8.21;50.77
13050;BME280;6591;51.446;5.404;2022-11-20T06:28:50;100886.16;;;8.27;50.71
13050;BME280;6591;51.446;5.404;2022-11-20T06:31:22;100891.38;;;8.28;50.79
13050;BME280;6591;51.446;5.404;2022-11-20T06:33:50;100892.19;;;8.32;50.62
13050;BME280;6591;51.446;5.404;2022-11-20T06:36:20;100888.53;;;8.34;50.53
13050;BME280;6591;51.446;5.404;2022-11-20T06:38:47;100884.88;;;8.38;50.81
13050;BME280;6591;51.446;5.404;2022-11-20T06:41:18;100882.22;;;8.38;50.65
13050;BME280;6591;51.446;5.404;2022-11-20T06:43:46;100868.91;;;8.41;50.17
13050;BME280;6591;51.446;5.404;2022-11-20T06:46:15;100873.28;;;8.42;51.02
13050;BME280;6591;51.446;5.404;2022-11-20T06:48:47;100870.50;;;8.45;51.20
13050;BME280;6591;51.446;5.404;2022-11-20T06:51:14;100861.53;;;8.49;50.73
13050;BME280;6591;51.446;5.404;2022-11-20T06:53:41;100861.38;;;8.54;50.68
13050;BME280;6591;51.446;5.404;2022-11-20T06:56:08;100863.91;;;8.57;50.39
13050;BME280;6591;51.446;5.404;2022-11-20T06:58:36;100864.66;;;8.61;50.83
13050;BME280;6591;51.446;5.404;2022-11-20T07:01:08;100868.13;;;8.63;50.71
13050;BME280;6591;51.446;5.404;2022-11-20T07:03:37;100867.94;;;8.67;50.94
13050;BME280;6591;51.446;5.404;2022-11-20T07:06:05;100872.25;;;8.70;51.01
13050;BME280;6591;51.446;5.404;2022-11-20T07:08:33;100873.06;;;8.72;50.91
13050;BME280;6591;51.446;5.404;2022-11-20T07:11:04;100865.94;;;8.74;51.06
13050;BME280;6591;51.446;5.404;2022-11-20T07:13:32;100861.44;;;8.76;50.78
13050;BME280;6591;51.446;5.404;2022-11-20T07:16:02;100859.69;;;8.75;50.89
13050;BME280;6591;51.446;5.404;2022-11-20T07:18:30;100855.22;;;8.77;50.67
13050;BME280;6591;51.446;5.404;2022-11-20T07:21:02;100855.09;;;8.80;50.55
13050;BME280;6591;51.446;5.404;2022-11-20T07:23:29;100849.69;;;8.83;50.58
13050;BME280;6591;51.446;5.404;2022-11-20T07:25:56;100856.59;;;8.87;51.00
13050;BME280;6591;51.446;5.404;2022-11-20T07:28:23;100862.63;;;8.90;50.91
13050;BME280;6591;51.446;5.404;2022-11-20T07:30:52;100847.59;;;8.91;51.05
13050;BME280;6591;51.446;5.404;2022-11-20T07:33:20;100851.84;;;8.95;50.45
13050;BME280;6591;51.446;5.404;2022-11-20T07:35:50;100857.16;;;8.95;50.48
13050;BME280;6591;51.446;5.404;2022-11-20T07:38:17;100852.81;;;8.94;50.61
13050;BME280;6591;51.446;5.404;2022-11-20T07:40:43;100847.50;;;8.94;50.71
13050;BME280;6591;51.446;5.404;2022-11-20T07:43:10;100851.84;;;8.95;50.64
13050;BME280;6591;51.446;5.404;2022-11-20T07:45:37;100852.72;;;8.96;51.02
13050;BME280;6591;51.446;5.404;2022-11-20T07:48:04;100847.38;;;8.97;51.26
13050;BME280;6591;51.446;5.404;2022-11-20T07:50:31;100848.19;;;8.99;50.69
13050;BME280;6591;51.446;5.404;2022-11-20T07:53:04;100851.63;;;9.01;50.68
13050;BME280;6591;51.446;5.404;2022-11-20T07:55:32;100850.63;;;9.05;50.80
13050;BME280;6591;51.446;5.404;2022-11-20T07:57:59;100853.06;;;9.10;51.02
13050;BME280;6591;51.446;5.404;2022-11-20T08:00:26;100860.84;;;9.14;51.15
13050;BME280;6591;51.446;5.404;2022-11-20T08:02:54;100866.81;;;9.19;51.10
13050;BME280;6591;51.446;5.404;2022-11-20T08:05:21;100858.63;;;9.25;50.83
13050;BME280;6591;51.446;5.404;2022-11-20T08:07:48;100867.25;;;9.30;51.44
13050;BME280;6591;51.446;5.404;2022-11-20T08:10:15;100856.34;;;9.38;51.26
13050;BME280;6591;51.446;5.404;2022-11-20T08:12:48;100854.44;;;9.42;51.15
13050;BME280;6591;51.446;5.404;2022-11-20T08:15:36;100864.78;;;9.48;51.17
13050;BME280;6591;51.446;5.404;2022-11-20T08:18:10;100858.38;;;9.53;51.29
13050;BME280;6591;51.446;5.404;2022-11-20T08:21:02;100860.75;;;9.59;51.43
13050;BME280;6591;51.446;5.404;2022-11-20T08:23:30;100857.00;;;9.65;51.04
13050;BME280;6591;51.446;5.404;2022-11-20T08:25:56;100864.75;;;9.69;51.07
13050;BME280;6591;51.446;5.404;2022-11-20T08:28:24;100870.81;;;9.73;51.01
13050;BME280;6591;51.446;5.404;2022-11-20T08:30:50;100864.47;;;9.77;51.09
13050;BME280;6591;51.446;5.404;2022-11-20T08:33:17;100864.22;;;9.83;51.02
13050;BME280;6591;51.446;5.404;2022-11-20T08:35:45;100858.75;;;9.86;51.08
13050;BME280;6591;51.446;5.404;2022-11-20T08:38:12;100863.00;;;9.90;50.94
13050;BME280;6591;51.446;5.404;2022-11-20T08:40:38;100861.16;;;9.92;51.06
13050;BME280;6591;51.446;5.404;2022-11-20T08:43:05;100857.44;;;9.96;51.05
13050;BME280;6591;51.446;5.404;2022-11-20T08:45:32;100856.38;;;10.00;50.97
13050;BME280;6591;51.446;5.404;2022-11-20T08:48:04;100851.81;;;10.04;50.77
13050;BME280;6591;51.446;5.404;2022-11-20T08:50:32;100855.19;;;10.07;50.78
13050;BME280;6591;51.446;5.404;2022-11-20T08:53:06;100847.03;;;10.12;51.13
13050;BME280;6591;51.446;5.404;2022-11-20T08:55:33;100851.25;;;10.17;50.82
13050;BME280;6591;51.446;5.404;2022-11-20T08:58:06;100858.13;;;10.22;51.59
13050;BME280;6591;51.446;5.404;2022-11-20T09:00:33;100850.78;;;10.28;51.09
13050;BME280;6591;51.446;5.404;2022-11-20T09:03:01;100846.13;;;10.33;51.37
13050;BME280;6591;51.446;5.404;2022-11-20T09:05:28;100844.94;;;10.40;51.08
13050;BME280;6591;51.446;5.404;2022-11-20T09:07:59;100848.16;;;10.47;50.90
13050;BME280;6591;51.446;5.404;2022-11-20T09:10:27;100844.47;;;10.51;51.29
13050;BME280;6591;51.446;5.404;2022-11-20T09:12:55;100842.47;;;10.56;51.01
13050;BME280;6591;51.446;5.404;2022-11-20T09:15:24;100836.13;;;10.58;51.14
13050;BME280;6591;51.446;5.404;2022-11-20T09:17:57;100844.91;;;10.60;50.91
13050;BME280;6591;51.446;5.404;2022-11-20T09:20:27;100836.72;;;10.65;51.03
13050;BME280;6591;51.446;5.404;2022-11-20T09:22:56;100823.16;;;10.71;50.99
13050;BME280;6591;51.446;5.404;2022-11-20T09:25:23;100830.06;;;10.75;50.85
13050;BME280;6591;51.446;5.404;2022-11-20T09:27:58;100817.47;;;10.79;50.96
13050;BME280;6591;51.446;5.404;2022-11-20T09:30:26;100814.47;;;10.86;51.55
13050;BME280;6591;51.446;5.404;2022-11-20T09:32:53;100805.44;;;10.90;51.37
13050;BME280;6591;51.446;5.404;2022-11-20T09:35:20;100816.56;;;10.98;51.47
13050;BME280;6591;51.446;5.404;2022-11-20T09:37:47;100804.69;;;11.05;51.31
13050;BME280;6591;51.446;5.404;2022-11-20T09:40:25;100798.22;;;11.11;50.99
13050;BME280;6591;51.446;5.404;2022-11-20T09:43:28;100791.81;;;11.15;51.31
13050;BME280;6591;51.446;5.404;2022-11-20T09:46:20;100801.22;;;11.22;51.41
13050;BME280;6591;51.446;5.404;2022-11-20T09:52:42;100788.44;;;11.30;51.26
13050;BME280;6591;51.446;5.404;2022-11-20T09:55:16;100790.72;;;11.38;51.25
13050;BME280;6591;51.446;5.404;2022-11-20T09:57:47;100783.38;;;11.43;51.35
13050;BME280;6591;51.446;5.404;2022-11-20T10:00:16;100774.16;;;11.50;51.80
13050;BME280;6591;51.446;5.404;2022-11-20T10:03:01;100773.84;;;11.56;51.88
13050;BME280;6591;51.446;5.404;2022-11-20T10:05:44;100766.34;;;11.64;51.48
13050;BME280;6591;51.446;5.404;2022-11-20T10:08:46;100757.97;;;11.72;51.68
13050;BME280;6591;51.446;5.404;2022-11-20T10:11:46;100747.88;;;11.78;51.34
13050;BME280;6591;51.446;5.404;2022-11-20T10:14:25;100725.34;;;11.85;51.19
13050;BME280;6591;51.446;5.404;2022-11-20T10:17:02;100716.25;;;11.89;51.63
13050;BME280;6591;51.446;5.404;2022-11-20T10:20:12;100717.69;;;11.97;51.68
13050;BME280;6591;51.446;5.404;2022-11-20T10:23:24;100704.66;;;12.08;51.96
13050;BME280;6591;51.446;5.404;2022-11-20T10:26:17;100707.16;;;12.26;52.25
13050;BME280;6591;51.446;5.404;2022-11-20T10:31:36;100706.06;;;12.62;52.13
13050;BME280;6591;51.446;5.404;2022-11-20T10:34:27;100706.34;;;12.73;51.43
13050;BME280;6591;51.446;5.404;2022-11-20T10:37:13;100706.44;;;12.87;51.54
13050;BME280;6591;51.446;5.404;2022-11-20T10:39:58;100700.56;;;12.96;51.39
13050;BME280;6591;51.446;5.404;2022-11-20T10:42:35;100692.91;;;13.06;51.10
13050;BME280;6591;51.446;5.404;2022-11-20T10:45:38;100678.50;;;13.08;51.17
13050;BME280;6591;51.446;5.404;2022-11-20T10:48:20;100673.72;;;13.15;50.77
13050;BME280;6591;51.446;5.404;2022-11-20T10:51:13;100672.78;;;13.16;51.03
13050;BME280;6591;51.446;5.404;2022-11-20T10:53:56;100660.22;;;13.18;50.72
13050;BME280;6591;51.446;5.404;2022-11-20T10:56:46;100655.06;;;13.15;51.04
13050;BME280;6591;51.446;5.404;2022-11-20T11:01:54;100646.78;;;13.20;50.85
13050;BME280;6591;51.446;5.404;2022-11-20T11:04:40;100646.91;;;13.18;50.87
13050;BME280;6591;51.446;5.404;2022-11-20T11:07:27;100652.97;;;13.20;51.06
13050;BME280;6591;51.446;5.404;2022-11-20T11:09:57;100643.00;;;13.24;50.77
13050;BME280;6591;51.446;5.404;2022-11-20T11:12:27;100642.03;;;13.25;51.01
13050;BME280;6591;51.446;5.404;2022-11-20T11:14:57;100633.00;;;13.27;50.77
13050;BME280;6591;51.446;5.404;2022-11-20T11:17:34;100630.34;;;13.27;50.53
13050;BME280;6591;51.446;5.404;2022-11-20T11:20:16;100629.56;;;13.25;50.58
13050;BME280;6591;51.446;5.404;2022-11-20T11:22:54;100640.25;;;13.25;50.19
13050;BME280;6591;51.446;5.404;2022-11-20T11:28:29;100635.25;;;13.19;50.48
13050;BME280;6591;51.446;5.404;2022-11-20T11:30:49;100628.41;;;13.15;50.44
13050;BME280;6591;51.446;5.404;2022-11-20T11:36:17;100614.81;;;13.04;50.28
13050;BME280;6591;51.446;5.404;2022-11-20T11:38:44;100616.53;;;13.05;50.65
13050;BME280;6591;51.446;5.404;2022-11-20T11:41:23;100609.69;;;13.01;50.62
13050;BME280;6591;51.446;5.404;2022-11-20T11:44:03;100605.38;;;12.98;50.80
13050;BME280;6591;51.446;5.404;2022-11-20T11:46:58;100599.97;;;13.00;51.17
13050;BME280;6591;51.446;5.404;2022-11-20T11:49:25;100591.22;;;12.98;50.95
13050;BME280;6591;51.446;5.404;2022-11-20T11:54:55;100590.38;;;12.97;50.84
13050;BME280;6591;51.446;5.404;2022-11-20T12:05:40;100558.75;;;13.05;51.26
13050;BME280;6591;51.446;5.404;2022-11-20T12:08:24;100546.00;;;13.10;51.53
13050;BME280;6591;51.446;5.404;2022-11-20T12:14:22;100542.25;;;13.14;51.48
13050;BME280;6591;51.446;5.404;2022-11-20T12:16:51;100522.34;;;13.20;51.30
13050;BME280;6591;51.446;5.404;2022-11-20T12:19:19;100514.91;;;13.25;51.37
13050;BME280;6591;51.446;5.404;2022-11-20T12:24:55;100509.31;;;13.30;51.57
13050;BME280;6591;51.446;5.404;2022-11-20T12:30:16;100502.34;;;13.41;51.74
13050;BME280;6591;51.446;5.404;2022-11-20T12:33:18;100491.50;;;13.44;51.59
13050;BME280;6591;51.446;5.404;2022-11-20T12:36:12;100496.34;;;13.52;51.81
13050;BME280;6591;51.446;5.404;2022-11-20T12:48:32;100474.78;;;13.69;51.64
13050;BME280;6591;51.446;5.404;2022-11-20T12:51:25;100460.22;;;13.75;51.52
13050;BME280;6591;51.446;5.404;2022-11-20T12:58:19;100442.81;;;13.82;51.94
13050;BME280;6591;51.446;5.404;2022-11-20T13:04:34;100411.41;;;13.99;51.94
13050;BME280;6591;51.446;5.404;2022-11-20T13:07:12;100409.94;;;14.08;51.71
13050;BME280;6591;51.446;5.404;2022-11-20T13:09:48;100405.13;;;14.13;51.75
13050;BME280;6591;51.446;5.404;2022-11-20T13:12:36;100399.38;;;14.19;51.79
13050;BME280;6591;51.446;5.404;2022-11-20T13:18:06;100391.72;;;14.27;51.67
13050;BME280;6591;51.446;5.404;2022-11-20T13:20:36;100393.31;;;14.30;51.32
13050;BME280;6591;51.446;5.404;2022-11-20T13:23:02;100381.59;;;14.32;51.54
13050;BME280;6591;51.446;5.404;2022-11-20T13:25:35;100384.25;;;14.32;51.09
13050;BME280;6591;51.446;5.404;2022-11-20T13:28:27;100366.53;;;14.31;51.41
13050;BME280;6591;51.446;5.404;2022-11-20T13:30:56;100367.16;;;14.35;51.03
13050;BME280;6591;51.446;5.404;2022-11-20T13:33:37;100358.41;;;14.33;51.56
13050;BME280;6591;51.446;5.404;2022-11-20T13:36:26;100355.84;;;14.31;51.29
13050;BME280;6591;51.446;5.404;2022-11-20T13:38:56;100335.97;;;14.35;51.39
13050;BME280;6591;51.446;5.404;2022-11-20T13:41:32;100337.72;;;14.36;51.52
13050;BME280;6591;51.446;5.404;2022-11-20T13:46:50;100323.56;;;14.34;51.39
13050;BME280;6591;51.446;5.404;2022-11-20T13:49:33;100331.72;;;14.33;51.50
13050;BME280;6591;51.446;5.404;2022-11-20T13:58:53;100309.47;;;14.32;51.51
13050;BME280;6591;51.446;5.404;2022-11-20T14:01:24;100316.53;;;14.33;51.41
13050;BME280;6591;51.446;5.404;2022-11-20T14:03:53;100314.72;;;14.34;51.62
13050;BME280;6591;51.446;5.404;2022-11-20T14:06:44;100308.53;;;14.33;51.62
13050;BME280;6591;51.446;5.404;2022-11-20T14:09:31;100306.06;;;14.30;51.49
13050;BME280;6591;51.446;5.404;2022-11-20T14:11:58;100306.81;;;14.32;51.53
13050;BME280;6591;51.446;5.404;2022-11-20T14:14:31;100291.75;;;14.31;51.22
13050;BME280;6591;51.446;5.404;2022-11-20T14:17:36;100278.91;;;14.24;51.55
13050;BME280;6591;51.446;5.404;2022-11-20T14:20:12;100277.09;;;14.24;51.24
13050;BME280;6591;51.446;5.404;2022-11-20T14:22:52;100279.22;;;14.19;51.37
13050;BME280;6591;51.446;5.404;2022-11-20T14:25:23;100268.69;;;14.18;50.78
13050;BME280;6591;51.446;5.404;2022-11-20T14:27:59;100275.41;;;14.11;51.75
13050;BME280;6591;51.446;5.404;2022-11-20T14:30:46;100270.69;;;14.02;51.50
13050;BME280;6591;51.446;5.404;2022-11-20T14:33:15;100264.81;;;13.96;51.44
13050;BME280;6591;51.446;5.404;2022-11-20T14:35:49;100267.06;;;13.90;51.56
13050;BME280;6591;51.446;5.404;2022-11-20T14:38:21;100273.56;;;13.86;51.80
13050;BME280;6591;51.446;5.404;2022-11-20T14:40:48;100266.59;;;13.83;51.63
13050;BME280;6591;51.446;5.404;2022-11-20T14:43:26;100260.94;;;13.75;51.75